sensor_id;sensor_type;location;lat;lon;timestamp;temperature;humidity
7496;DHT22;3789;47.064;15.482;2023-04-01T00:00:27;6.40;99.90
7496;DHT22;3789;47.064;15.482;2023-04-01T00:02:56;6.50;99.90
7496;DHT22;3789;47.064;15.482;2023-04-01T00:08:55;6.60;99.90
7496;DHT22;3789;47.064;15.482;2023-04-01T00:11:22;6.60;99.90
7496;DHT22;3789;47.064;15.482;2023-04-01T00:13:50;6.60;99.90
7496;DHT22;3789;47.064;15.482;2023-04-01T00:16:21;6.70;99.90
7496;DHT22;3789;47.064;15.482;2023-04-01T00:18:51;6.80;99.90
7496;DHT22;3789;47.064;15.482;2023-04-01T00:21:22;6.80;99.90
7496;DHT22;3789;47.064;15.482;2023-04-01T00:23:51;6.80;99.90
7496;DHT22;3789;47.064;15.482;2023-04-01T00:26:21;6.70;99.90
7496;DHT22;3789;47.064;15.482;2023-04-01T00:28:49;6.80;99.90
7496;DHT22;3789;47.064;15.482;2023-04-01T00:31:20;6.80;99.90
7496;DHT22;3789;47.064;15.482;2023-04-01T00:33:47;6.80;99.90
7496;DHT22;3789;47.064;15.482;2023-04-01T00:36:26;6.80;99.90
7496;DHT22;3789;47.064;15.482;2023-04-01T00:39:04;6.80;99.90
7496;DHT22;3789;47.064;15.482;2023-04-01T00:41:41;6.80;99.90
7496;DHT22;3789;47.064;15.482;2023-04-01T00:44:19;6.80;99.90
7496;DHT22;3789;47.064;15.482;2023-04-01T00:46:52;6.80;99.90
7496;DHT22;3789;47.064;15.482;2023-04-01T00:49:26;6.80;99.90
7496;DHT22;3789;47.064;15.482;2023-04-01T00:51:57;6.70;99.90
7496;DHT22;3789;47.064;15.482;2023-04-01T00:54:33;6.80;99.90
7496;DHT22;3789;47.064;15.482;2023-04-01T00:57:34;6.90;99.90
7496;DHT22;3789;47.064;15.482;2023-04-01T01:00:06;6.90;99.90
7496;DHT22;3789;47.064;15.482;2023-04-01T01:02:40;7.00;99.90
7496;DHT22;3789;47.064;15.482;2023-04-01T01:05:32;7.00;99.90
7496;DHT22;3789;47.064;15.482;2023-04-01T01:14:39;7.00;99.90
7496;DHT22;3789;47.064;15.482;2023-04-01T01:37:25;6.80;99.90
7496;DHT22;3789;47.064;15.482;2023-04-01T01:40:05;6.80;99.90
7496;DHT22;3789;47.064;15.482;2023-04-01T01:42:41;6.80;99.90
7496;DHT22;3789;47.064;15.482;2023-04-01T01:45:18;6.80;99.90
7496;DHT22;3789;47.064;15.482;2023-04-01T01:47:51;6.90;99.90
7496;DHT22;3789;47.064;15.482;2023-04-01T01:50:37;6.80;99.90
7496;DHT22;3789;47.064;15.482;2023-04-01T01:53:10;6.80;99.90
7496;DHT22;3789;47.064;15.482;2023-04-01T01:55:45;6.80;99.90
7496;DHT22;3789;47.064;15.482;2023-04-01T01:58:35;6.80;99.90
7496;DHT22;3789;47.064;15.482;2023-04-01T02:01:19;6.80;99.90
7496;DHT22;3789;47.064;15.482;2023-04-01T02:03:51;6.90;99.90
7496;DHT22;3789;47.064;15.482;2023-04-01T02:06:26;6.90;99.90
7496;DHT22;3789;47.064;15.482;2023-04-01T02:09:05;6.90;99.90
7496;DHT22;3789;47.064;15.482;2023-04-01T02:12:05;6.90;99.90
7496;DHT22;3789;47.064;15.482;2023-04-01T02:17:21;6.80;99.90
7496;DHT22;3789;47.064;15.482;2023-04-01T02:20:23;6.90;99.90
7496;DHT22;3789;47.064;15.482;2023-04-01T02:22:54;6.90;99.90
7496;DHT22;3789;47.064;15.482;2023-04-01T02:25:33;6.90;99.90
7496;DHT22;3789;47.064;15.482;2023-04-01T02:28:14;7.00;99.90
7496;DHT22;3789;47.064;15.482;2023-04-01T02:30:51;7.00;99.90
7496;DHT22;3789;47.064;15.482;2023-04-01T02:33:27;7.00;99.90
7496;DHT22;3789;47.064;15.482;2023-04-01T02:35:55;6.90;99.90
7496;DHT22;3789;47.064;15.482;2023-04-01T02:38:25;6.90;99.90
7496;DHT22;3789;47.064;15.482;2023-04-01T02:41:00;6.80;99.90
7496;DHT22;3789;47.064;15.482;2023-04-01T02:43:28;6.70;99.90
7496;DHT22;3789;47.064;15.482;2023-04-01T02:45:58;6.60;99.90
7496;DHT22;3789;47.064;15.482;2023-04-01T02:48:32;6.70;99.90
7496;DHT22;3789;47.064;15.482;2023-04-01T02:51:03;6.70;99.90
7496;DHT22;3789;47.064;15.482;2023-04-01T02:53:32;6.70;99.90
7496;DHT22;3789;47.064;15.482;2023-04-01T02:56:05;6.70;99.90
7496;DHT22;3789;47.064;15.482;2023-04-01T02:58:35;6.70;99.90
7496;DHT22;3789;47.064;15.482;2023-04-01T03:01:07;6.50;99.90
7496;DHT22;3789;47.064;15.482;2023-04-01T03:03:38;6.40;99.90
7496;DHT22;3789;47.064;15.482;2023-04-01T03:06:16;6.40;99.90
7496;DHT22;3789;47.064;15.482;2023-04-01T03:08:45;6.30;99.90
7496;DHT22;3789;47.064;15.482;2023-04-01T03:11:14;6.30;99.90
7496;DHT22;3789;47.064;15.482;2023-04-01T03:13:45;6.30;99.90
7496;DHT22;3789;47.064;15.482;2023-04-01T03:16:16;6.30;99.90
7496;DHT22;3789;47.064;15.482;2023-04-01T03:18:45;6.30;99.90
7496;DHT22;3789;47.064;15.482;2023-04-01T03:21:16;6.30;99.90
7496;DHT22;3789;47.064;15.482;2023-04-01T03:23:47;6.30;99.90
7496;DHT22;3789;47.064;15.482;2023-04-01T03:26:15;6.40;99.90
7496;DHT22;3789;47.064;15.482;2023-04-01T03:28:52;6.40;99.90
7496;DHT22;3789;47.064;15.482;2023-04-01T03:31:22;6.50;99.90
7496;DHT22;3789;47.064;15.482;2023-04-01T03:33:50;6.50;99.90
7496;DHT22;3789;47.064;15.482;2023-04-01T03:36:19;6.50;99.90
7496;DHT22;3789;47.064;15.482;2023-04-01T03:38:49;6.60;99.90
7496;DHT22;3789;47.064;15.482;2023-04-01T03:41:19;6.60;99.90
7496;DHT22;3789;47.064;15.482;2023-04-01T03:43:58;6.60;99.90
7496;DHT22;3789;47.064;15.482;2023-04-01T03:46:26;6.60;99.90
7496;DHT22;3789;47.064;15.482;2023-04-01T03:48:56;6.60;99.90
7496;DHT22;3789;47.064;15.482;2023-04-01T03:51:33;6.70;99.90
7496;DHT22;3789;47.064;15.482;2023-04-01T03:54:03;6.60;99.90
7496;DHT22;3789;47.064;15.482;2023-04-01T03:56:32;6.60;99.90
7496;DHT22;3789;47.064;15.482;2023-04-01T03:59:10;6.60;99.90
7496;DHT22;3789;47.064;15.482;2023-04-01T04:01:41;6.70;99.90
7496;DHT22;3789;47.064;15.482;2023-04-01T04:04:11;6.70;99.90
7496;DHT22;3789;47.064;15.482;2023-04-01T04:06:59;6.70;99.90
7496;DHT22;3789;47.064;15.482;2023-04-01T04:09:31;6.70;99.90
7496;DHT22;3789;47.064;15.482;2023-04-01T04:12:02;6.70;99.90
7496;DHT22;3789;47.064;15.482;2023-04-01T04:14:31;6.70;99.90
7496;DHT22;3789;47.064;15.482;2023-04-01T04:17:07;6.80;99.90
7496;DHT22;3789;47.064;15.482;2023-04-01T04:19:43;6.70;99.90
7496;DHT22;3789;47.064;15.482;2023-04-01T04:22:14;6.60;99.90
7496;DHT22;3789;47.064;15.482;2023-04-01T04:24:46;6.60;99.90
7496;DHT22;3789;47.064;15.482;2023-04-01T04:27:20;6.60;99.90
7496;DHT22;3789;47.064;15.482;2023-04-01T04:29:48;6.60;99.90
7496;DHT22;3789;47.064;15.482;2023-04-01T04:32:18;6.60;99.90
7496;DHT22;3789;47.064;15.482;2023-04-01T04:34:49;6.70;99.90
7496;DHT22;3789;47.064;15.482;2023-04-01T04:37:17;6.70;99.90
7496;DHT22;3789;47.064;15.482;2023-04-01T04:39:46;6.70;99.90
7496;DHT22;3789;47.064;15.482;2023-04-01T04:42:13;6.70;99.90
7496;DHT22;3789;47.064;15.482;2023-04-01T04:44:44;6.70;99.90
7496;DHT22;3789;47.064;15.482;2023-04-01T04:47:13;6.70;99.90
7496;DHT22;3789;47.064;15.482;2023-04-01T04:49:41;6.50;99.90
7496;DHT22;3789;47.064;15.482;2023-04-01T04:52:10;6.50;99.90
7496;DHT22;3789;47.064;15.482;2023-04-01T04:54:39;6.40;99.90
7496;DHT22;3789;47.064;15.482;2023-04-01T04:57:08;6.30;99.90
7496;DHT22;3789;47.064;15.482;2023-04-01T04:59:39;6.30;99.90
7496;DHT22;3789;47.064;15.482;2023-04-01T05:02:33;6.30;99.90
7496;DHT22;3789;47.064;15.482;2023-04-01T05:05:08;6.40;99.90
7496;DHT22;3789;47.064;15.482;2023-04-01T05:07:44;6.40;99.90
7496;DHT22;3789;47.064;15.482;2023-04-01T05:10:14;6.40;99.90
7496;DHT22;3789;47.064;15.482;2023-04-01T05:12:43;6.50;99.90
7496;DHT22;3789;47.064;15.482;2023-04-01T05:15:15;6.60;99.90
7496;DHT22;3789;47.064;15.482;2023-04-01T05:17:45;6.70;99.90
7496;DHT22;3789;47.064;15.482;2023-04-01T05:20:14;6.80;99.90
7496;DHT22;3789;47.064;15.482;2023-04-01T05:22:45;6.80;99.90
7496;DHT22;3789;47.064;15.482;2023-04-01T05:25:14;7.00;99.90
7496;DHT22;3789;47.064;15.482;2023-04-01T05:27:43;7.10;99.90
7496;DHT22;3789;47.064;15.482;2023-04-01T05:30:18;7.20;99.90
7496;DHT22;3789;47.064;15.482;2023-04-01T05:32:49;7.30;99.90
7496;DHT22;3789;47.064;15.482;2023-04-01T05:35:27;7.30;99.90
7496;DHT22;3789;47.064;15.482;2023-04-01T05:37:55;7.30;99.90
7496;DHT22;3789;47.064;15.482;2023-04-01T05:40:23;7.40;99.90
7496;DHT22;3789;47.064;15.482;2023-04-01T05:42:52;7.50;99.90
7496;DHT22;3789;47.064;15.482;2023-04-01T05:45:27;7.60;99.90
7496;DHT22;3789;47.064;15.482;2023-04-01T05:47:56;7.70;99.90
7496;DHT22;3789;47.064;15.482;2023-04-01T05:50:28;7.70;99.90
7496;DHT22;3789;47.064;15.482;2023-04-01T05:52:58;7.80;99.90
7496;DHT22;3789;47.064;15.482;2023-04-01T05:55:29;7.70;99.90
7496;DHT22;3789;47.064;15.482;2023-04-01T05:57:59;7.80;99.90
7496;DHT22;3789;47.064;15.482;2023-04-01T06:00:28;7.90;99.90
7496;DHT22;3789;47.064;15.482;2023-04-01T06:03:09;8.00;99.90
7496;DHT22;3789;47.064;15.482;2023-04-01T06:05:41;8.20;99.90
7496;DHT22;3789;47.064;15.482;2023-04-01T06:08:23;8.30;99.90
7496;DHT22;3789;47.064;15.482;2023-04-01T06:14:22;8.40;99.90
7496;DHT22;3789;47.064;15.482;2023-04-01T06:17:30;8.60;99.90
7496;DHT22;3789;47.064;15.482;2023-04-01T06:20:33;8.90;99.90
7496;DHT22;3789;47.064;15.482;2023-04-01T06:23:21;9.10;99.90
7496;DHT22;3789;47.064;15.482;2023-04-01T06:26:24;9.30;99.90
7496;DHT22;3789;47.064;15.482;2023-04-01T06:56:08;15.70;99.90
7496;DHT22;3789;47.064;15.482;2023-04-01T06:58:56;15.70;99.90
7496;DHT22;3789;47.064;15.482;2023-04-01T07:01:40;15.90;99.90
7496;DHT22;3789;47.064;15.482;2023-04-01T07:04:31;16.00;99.90
7496;DHT22;3789;47.064;15.482;2023-04-01T07:10:02;16.00;99.90
7496;DHT22;3789;47.064;15.482;2023-04-01T07:12:55;15.60;99.90
7496;DHT22;3789;47.064;15.482;2023-04-01T07:15:51;15.40;99.90
7496;DHT22;3789;47.064;15.482;2023-04-01T07:18:37;15.30;99.90
7496;DHT22;3789;47.064;15.482;2023-04-01T07:21:36;15.30;99.90
7496;DHT22;3789;47.064;15.482;2023-04-01T07:24:37;15.30;99.90
7496;DHT22;3789;47.064;15.482;2023-04-01T07:27:13;14.20;96.80
7496;DHT22;3789;47.064;15.482;2023-04-01T07:29:41;11.30;96.90
7496;DHT22;3789;47.064;15.482;2023-04-01T07:32:35;8.80;99.90
7496;DHT22;3789;47.064;15.482;2023-04-01T07:35:53;7.00;99.90
7496;DHT22;3789;47.064;15.482;2023-04-01T07:39:15;6.00;99.90
7496;DHT22;3789;47.064;15.482;2023-04-01T07:41:51;5.30;99.90
7496;DHT22;3789;47.064;15.482;2023-04-01T07:44:38;5.10;99.90
7496;DHT22;3789;47.064;15.482;2023-04-01T07:50:41;5.50;99.90
7496;DHT22;3789;47.064;15.482;2023-04-01T08:06:15;6.30;99.90
7496;DHT22;3789;47.064;15.482;2023-04-01T08:09:38;7.50;99.90
7496;DHT22;3789;47.064;15.482;2023-04-01T08:12:48;8.60;99.90
7496;DHT22;3789;47.064;15.482;2023-04-01T08:18:57;11.00;99.90
7496;DHT22;3789;47.064;15.482;2023-04-01T08:21:54;12.10;99.90
7496;DHT22;3789;47.064;15.482;2023-04-01T08:24:44;13.00;99.90
7496;DHT22;3789;47.064;15.482;2023-04-01T08:32:57;16.00;99.90
7496;DHT22;3789;47.064;15.482;2023-04-01T08:38:36;16.90;99.90
7496;DHT22;3789;47.064;15.482;2023-04-01T08:44:41;17.40;99.90
7496;DHT22;3789;47.064;15.482;2023-04-01T08:54:08;17.80;99.90
7496;DHT22;3789;47.064;15.482;2023-04-01T08:57:07;18.00;99.90
7496;DHT22;3789;47.064;15.482;2023-04-01T09:06:32;18.30;99.90
7496;DHT22;3789;47.064;15.482;2023-04-01T09:12:18;18.20;99.90
7496;DHT22;3789;47.064;15.482;2023-04-01T09:22:47;17.80;99.40
7496;DHT22;3789;47.064;15.482;2023-04-01T09:32:11;17.80;99.40
7496;DHT22;3789;47.064;15.482;2023-04-01T09:44:06;17.90;97.60
7496;DHT22;3789;47.064;15.482;2023-04-01T10:02:03;18.30;97.20
7496;DHT22;3789;47.064;15.482;2023-04-01T10:11:21;18.40;98.00
7496;DHT22;3789;47.064;15.482;2023-04-01T10:26:19;16.10;87.20
7496;DHT22;3789;47.064;15.482;2023-04-01T10:38:23;6.90;98.20
7496;DHT22;3789;47.064;15.482;2023-04-01T10:47:40;6.40;99.90
7496;DHT22;3789;47.064;15.482;2023-04-01T11:11:47;15.20;99.90
7496;DHT22;3789;47.064;15.482;2023-04-01T11:41:56;16.20;95.60
7496;DHT22;3789;47.064;15.482;2023-04-01T11:44:34;16.30;97.50
7496;DHT22;3789;47.064;15.482;2023-04-01T11:47:39;16.60;97.70
7496;DHT22;3789;47.064;15.482;2023-04-01T11:53:32;17.10;95.60
7496;DHT22;3789;47.064;15.482;2023-04-01T12:02:25;17.60;93.70
7496;DHT22;3789;47.064;15.482;2023-04-01T12:11:48;17.90;95.60
7496;DHT22;3789;47.064;15.482;2023-04-01T12:23:29;18.30;92.30
7496;DHT22;3789;47.064;15.482;2023-04-01T12:29:48;18.30;92.40
7496;DHT22;3789;47.064;15.482;2023-04-01T13:21:01;18.10;90.40
7496;DHT22;3789;47.064;15.482;2023-04-01T13:30:20;17.90;90.50
7496;DHT22;3789;47.064;15.482;2023-04-01T13:47:40;17.60;89.60
7496;DHT22;3789;47.064;15.482;2023-04-01T13:51:33;17.60;87.90
7496;DHT22;3789;47.064;15.482;2023-04-01T13:56:50;17.60;87.10
7496;DHT22;3789;47.064;15.482;2023-04-01T14:11:56;17.90;87.50
7496;DHT22;3789;47.064;15.482;2023-04-01T14:18:11;17.80;86.40
7496;DHT22;3789;47.064;15.482;2023-04-01T14:26:55;17.60;83.00
7496;DHT22;3789;47.064;15.482;2023-04-01T14:32:51;17.60;86.90
7496;DHT22;3789;47.064;15.482;2023-04-01T14:41:58;17.60;85.70
7496;DHT22;3789;47.064;15.482;2023-04-01T14:50:50;16.30;80.50
7496;DHT22;3789;47.064;15.482;2023-04-01T14:55:56;15.80;83.10
7496;DHT22;3789;47.064;15.482;2023-04-01T14:58:49;15.80;88.80
7496;DHT22;3789;47.064;15.482;2023-04-01T15:04:33;15.90;84.10
7496;DHT22;3789;47.064;15.482;2023-04-01T15:07:26;16.00;87.40
7496;DHT22;3789;47.064;15.482;2023-04-01T15:18:34;16.10;82.30
7496;DHT22;3789;47.064;15.482;2023-04-01T15:21:31;16.00;81.80
7496;DHT22;3789;47.064;15.482;2023-04-01T15:28:04;15.60;80.20
7496;DHT22;3789;47.064;15.482;2023-04-01T15:30:53;15.70;84.00
7496;DHT22;3789;47.064;15.482;2023-04-01T15:33:39;15.90;85.30
7496;DHT22;3789;47.064;15.482;2023-04-01T15:36:44;15.90;80.80
7496;DHT22;3789;47.064;15.482;2023-04-01T15:43:00;15.60;80.10
7496;DHT22;3789;47.064;15.482;2023-04-01T15:46:14;15.60;84.30
7496;DHT22;3789;47.064;15.482;2023-04-01T15:49:37;15.80;84.10
7496;DHT22;3789;47.064;15.482;2023-04-01T15:54:56;15.90;85.90
7496;DHT22;3789;47.064;15.482;2023-04-01T15:57:56;15.70;83.90
7496;DHT22;3789;47.064;15.482;2023-04-01T16:03:55;15.70;84.00
7496;DHT22;3789;47.064;15.482;2023-04-01T16:15:26;15.70;81.10
7496;DHT22;3789;47.064;15.482;2023-04-01T16:24:24;15.40;80.80
7496;DHT22;3789;47.064;15.482;2023-04-01T16:39:06;14.50;81.30
7496;DHT22;3789;47.064;15.482;2023-04-01T16:48:13;14.10;83.40
7496;DHT22;3789;47.064;15.482;2023-04-01T16:51:04;14.00;83.50
7496;DHT22;3789;47.064;15.482;2023-04-01T16:54:13;13.80;84.00
7496;DHT22;3789;47.064;15.482;2023-04-01T16:59:53;13.60;84.50
7496;DHT22;3789;47.064;15.482;2023-04-01T17:02:35;13.60;85.30
7496;DHT22;3789;47.064;15.482;2023-04-01T17:05:12;13.50;85.90
7496;DHT22;3789;47.064;15.482;2023-04-01T17:22:49;13.20;87.90
7496;DHT22;3789;47.064;15.482;2023-04-01T17:28:47;13.10;88.90
7496;DHT22;3789;47.064;15.482;2023-04-01T17:41:03;12.90;90.10
7496;DHT22;3789;47.064;15.482;2023-04-01T17:52:32;12.80;90.30
7496;DHT22;3789;47.064;15.482;2023-04-01T17:58:34;12.70;90.50
7496;DHT22;3789;47.064;15.482;2023-04-01T18:01:03;12.70;90.20
7496;DHT22;3789;47.064;15.482;2023-04-01T18:04:10;12.70;90.20
7496;DHT22;3789;47.064;15.482;2023-04-01T18:10:04;12.50;92.00
7496;DHT22;3789;47.064;15.482;2023-04-01T18:22:28;12.20;93.00
7496;DHT22;3789;47.064;15.482;2023-04-01T18:28:52;12.20;93.40
7496;DHT22;3789;47.064;15.482;2023-04-01T18:31:36;12.20;93.30
7496;DHT22;3789;47.064;15.482;2023-04-01T18:37:42;12.40;93.00
7496;DHT22;3789;47.064;15.482;2023-04-01T18:43:36;12.40;93.00
7496;DHT22;3789;47.064;15.482;2023-04-01T18:52:44;12.20;94.00
7496;DHT22;3789;47.064;15.482;2023-04-01T18:55:37;12.20;93.70
7496;DHT22;3789;47.064;15.482;2023-04-01T18:58:32;12.20;94.00
7496;DHT22;3789;47.064;15.482;2023-04-01T19:10:46;12.10;94.80
7496;DHT22;3789;47.064;15.482;2023-04-01T19:19:24;12.00;96.40
7496;DHT22;3789;47.064;15.482;2023-04-01T19:28:55;11.80;95.90
7496;DHT22;3789;47.064;15.482;2023-04-01T19:32:21;11.70;96.40
7496;DHT22;3789;47.064;15.482;2023-04-01T19:34:54;11.60;96.40
7496;DHT22;3789;47.064;15.482;2023-04-01T19:37:44;11.60;96.40
7496;DHT22;3789;47.064;15.482;2023-04-01T19:43:38;11.50;97.30
7496;DHT22;3789;47.064;15.482;2023-04-01T19:46:54;11.50;97.30
7496;DHT22;3789;47.064;15.482;2023-04-01T19:49:50;11.40;98.30
7496;DHT22;3789;47.064;15.482;2023-04-01T19:52:40;11.40;98.90
7496;DHT22;3789;47.064;15.482;2023-04-01T19:55:53;11.40;98.50
7496;DHT22;3789;47.064;15.482;2023-04-01T19:58:40;11.40;98.10
7496;DHT22;3789;47.064;15.482;2023-04-01T20:01:18;11.30;98.30
7496;DHT22;3789;47.064;15.482;2023-04-01T20:04:30;11.30;98.20
7496;DHT22;3789;47.064;15.482;2023-04-01T20:07:35;11.30;98.80
7496;DHT22;3789;47.064;15.482;2023-04-01T20:10:17;11.20;99.30
7496;DHT22;3789;47.064;15.482;2023-04-01T20:13:03;11.20;99.20
7496;DHT22;3789;47.064;15.482;2023-04-01T20:15:43;11.20;99.00
7496;DHT22;3789;47.064;15.482;2023-04-01T20:19:06;11.30;99.20
7496;DHT22;3789;47.064;15.482;2023-04-01T20:21:36;11.30;98.80
7496;DHT22;3789;47.064;15.482;2023-04-01T20:24:31;11.30;98.50
7496;DHT22;3789;47.064;15.482;2023-04-01T20:30:04;11.30;98.10
7496;DHT22;3789;47.064;15.482;2023-04-01T20:45:37;11.20;99.90
7496;DHT22;3789;47.064;15.482;2023-04-01T20:51:32;11.20;99.90
7496;DHT22;3789;47.064;15.482;2023-04-01T20:57:48;11.10;99.90
7496;DHT22;3789;47.064;15.482;2023-04-01T21:25:31;11.00;99.90
7496;DHT22;3789;47.064;15.482;2023-04-01T21:40:00;10.80;99.90
7496;DHT22;3789;47.064;15.482;2023-04-01T21:52:23;10.70;99.90
7496;DHT22;3789;47.064;15.482;2023-04-01T22:04:21;10.60;99.90
7496;DHT22;3789;47.064;15.482;2023-04-01T22:07:21;10.60;99.90
7496;DHT22;3789;47.064;15.482;2023-04-01T22:13:16;10.50;99.90
7496;DHT22;3789;47.064;15.482;2023-04-01T22:22:11;10.40;99.90
7496;DHT22;3789;47.064;15.482;2023-04-01T22:25:07;10.40;99.90
7496;DHT22;3789;47.064;15.482;2023-04-01T22:27:45;10.30;99.90
7496;DHT22;3789;47.064;15.482;2023-04-01T22:30:41;10.30;99.90
7496;DHT22;3789;47.064;15.482;2023-04-01T22:33:32;10.30;99.90
7496;DHT22;3789;47.064;15.482;2023-04-01T22:51:39;10.30;99.90
7496;DHT22;3789;47.064;15.482;2023-04-01T22:54:22;10.20;99.90
7496;DHT22;3789;47.064;15.482;2023-04-01T22:57:32;10.10;99.90
7496;DHT22;3789;47.064;15.482;2023-04-01T23:02:45;10.10;99.90
7496;DHT22;3789;47.064;15.482;2023-04-01T23:05:26;10.00;99.90
7496;DHT22;3789;47.064;15.482;2023-04-01T23:11:14;9.80;99.90
7496;DHT22;3789;47.064;15.482;2023-04-01T23:14:17;7.80;99.90
7496;DHT22;3789;47.064;15.482;2023-04-01T23:28:55;2.80;99.90
7496;DHT22;3789;47.064;15.482;2023-04-01T23:32:04;2.70;99.90
7496;DHT22;3789;47.064;15.482;2023-04-01T23:34:35;2.50;99.90
7496;DHT22;3789;47.064;15.482;2023-04-01T23:37:11;2.40;99.90
7496;DHT22;3789;47.064;15.482;2023-04-01T23:39:48;2.50;99.90
7496;DHT22;3789;47.064;15.482;2023-04-01T23:42:39;2.50;99.90
7496;DHT22;3789;47.064;15.482;2023-04-01T23:45:18;2.70;99.90
7496;DHT22;3789;47.064;15.482;2023-04-01T23:47:54;2.80;99.90
7496;DHT22;3789;47.064;15.482;2023-04-01T23:50:25;3.40;99.90
7496;DHT22;3789;47.064;15.482;2023-04-01T23:53:02;4.00;99.90
7496;DHT22;3789;47.064;15.482;2023-04-01T23:55:34;4.50;99.90
